Time;durP1;ratioP1;P1;durP2;ratioP2;P2;SDS_P1;SDS_P2;PMS_P1;PMS_P2;Temp;Humidity;BMP_temperature;BMP_pressure;BME280_temperature;BME280_humidity;BME280_pressure;Samples;Min_cycle;Max_cycle;Signal;HPM_P1;HPM_P2
2021/12/30 00:01:48;;;;;;;;;;;11.80;99.90;;;;;;5102323;27;19927;-60
2021/12/30 00:04:14;;;;;;;;;;;11.70;99.90;;;;;;5102820;27;19955;-60
2021/12/30 00:06:40;;;;;;;;;;;11.70;99.90;;;;;;5105467;27;19923;-60
2021/12/30 00:09:10;;;;;;;;;;;11.70;99.90;;;;;;5111015;27;20540;-60
2021/12/30 00:11:36;;;;;;;;;;;11.70;99.90;;;;;;5102358;28;19927;-60
2021/12/30 00:14:01;;;;;;;;;;;11.70;99.90;;;;;;5104108;28;19956;-60
2021/12/30 00:16:27;;;;;;;;;;;11.70;99.90;;;;;;5101577;28;19923;-59
2021/12/30 00:18:52;;;;;;;;;;;11.70;99.90;;;;;;5095070;28;19916;-60
2021/12/30 00:21:20;;;;;;;;;;;11.70;99.90;;;;;;5099563;28;20371;-61
2021/12/30 00:23:46;;;;;;;;;;;11.70;99.90;;;;;;5100486;28;19951;-61
2021/12/30 00:26:11;;;;;;;;;;;11.60;99.90;;;;;;5102580;28;19996;-60
2021/12/30 00:28:37;;;;;;;;;;;11.70;99.90;;;;;;5099943;28;20396;-61
2021/12/30 00:31:03;;;;;;;;;;;11.70;99.90;;;;;;5097228;27;19924;-60
2021/12/30 00:33:30;;;;;;;;;;;11.70;99.90;;;;;;5099644;27;19915;-61
2021/12/30 00:35:56;;;;;;;;;;;11.70;99.90;;;;;;5097811;28;19942;-60
2021/12/30 00:38:21;;;;;;;;;;;11.60;99.90;;;;;;5097222;28;22162;-60
2021/12/30 00:40:47;;;;;;;;;;;11.60;99.90;;;;;;5101335;28;19969;-60
2021/12/30 00:43:13;;;;;;;;;;;11.60;99.90;;;;;;5096973;28;20049;-60
2021/12/30 00:45:38;;;;;;;;;;;11.50;99.90;;;;;;5098958;28;19920;-60
2021/12/30 00:48:05;;;;;;;;;;;11.50;99.90;;;;;;5103559;28;20011;-60
2021/12/30 00:50:31;;;;;;;;;;;11.50;99.90;;;;;;5104881;27;19923;-60
2021/12/30 00:52:58;;;;;;;;;;;11.60;99.90;;;;;;5103253;28;20426;-59
2021/12/30 00:55:24;;;;;;;;;;;11.60;99.90;;;;;;5104644;27;20381;-60
2021/12/30 00:57:50;;;;;;;;;;;11.60;99.90;;;;;;5107046;27;19915;-60
2021/12/30 01:00:17;;;;;;;;;;;11.60;99.90;;;;;;5103997;27;19926;-60
2021/12/30 01:02:43;;;;;;;;;;;11.70;99.90;;;;;;5100479;28;19927;-59
2021/12/30 01:05:08;;;;;;;;;;;11.60;99.90;;;;;;5103499;27;19992;-60
2021/12/30 01:07:34;;;;;;;;;;;11.70;99.90;;;;;;5109071;27;20378;-60
2021/12/30 01:10:00;;;;;;;;;;;11.60;99.90;;;;;;5103145;27;20979;-60
2021/12/30 01:12:26;;;;;;;;;;;11.60;99.90;;;;;;5100308;27;19916;-60
2021/12/30 01:14:51;;;;;;;;;;;11.70;99.90;;;;;;5107973;27;19930;-60
2021/12/30 01:17:41;;;;;;;;;;;11.70;99.90;;;;;;5098240;28;19919;-61
2021/12/30 01:20:08;;;;;;;;;;;11.70;99.90;;;;;;5099884;27;20366;-61
2021/12/30 01:22:33;;;;;;;;;;;11.70;99.90;;;;;;5100405;27;19992;-60
2021/12/30 01:24:59;;;;;;;;;;;11.70;99.90;;;;;;5110296;27;19915;-60
2021/12/30 01:27:25;;;;;;;;;;;11.70;99.90;;;;;;5106200;27;19951;-61
2021/12/30 01:29:51;;;;;;;;;;;11.80;99.90;;;;;;5097634;27;19962;-60
2021/12/30 01:32:16;;;;;;;;;;;11.80;99.90;;;;;;5108053;27;19919;-60
2021/12/30 01:34:42;;;;;;;;;;;11.80;99.90;;;;;;5079259;27;19913;-59
2021/12/30 01:37:07;;;;;;;;;;;11.80;99.90;;;;;;5102238;27;19916;-60
2021/12/30 01:39:35;;;;;;;;;;;11.70;99.90;;;;;;5102302;27;20298;-60
2021/12/30 01:42:01;;;;;;;;;;;11.70;99.90;;;;;;5104781;27;19920;-60
2021/12/30 01:44:28;;;;;;;;;;;11.80;99.90;;;;;;5095681;27;20630;-60
2021/12/30 01:46:54;;;;;;;;;;;11.80;99.90;;;;;;5099433;28;19942;-60
2021/12/30 01:49:21;;;;;;;;;;;11.80;99.90;;;;;;5105477;27;20457;-60
2021/12/30 01:51:47;;;;;;;;;;;11.80;99.90;;;;;;5110148;27;20363;-60
2021/12/30 01:54:13;;;;;;;;;;;11.90;99.90;;;;;;5101856;27;20034;-60
2021/12/30 01:56:39;;;;;;;;;;;11.80;99.90;;;;;;5100072;27;19931;-59
2021/12/30 01:59:04;;;;;;;;;;;11.90;99.90;;;;;;5101592;28;19919;-60
2021/12/30 02:01:30;;;;;;;;;;;11.80;99.90;;;;;;5084932;28;20447;-60
2021/12/30 02:03:56;;;;;;;;;;;11.80;99.90;;;;;;5102113;27;19951;-61
2021/12/30 02:06:22;;;;;;;;;;;11.80;99.90;;;;;;5102654;27;19942;-60
2021/12/30 02:08:47;;;;;;;;;;;11.90;99.90;;;;;;5084426;28;20541;-60
2021/12/30 02:11:13;;;;;;;;;;;11.90;99.90;;;;;;5111233;27;20014;-60
2021/12/30 02:13:39;;;;;;;;;;;11.90;99.90;;;;;;5107318;27;19919;-61
2021/12/30 02:16:05;;;;;;;;;;;11.90;99.90;;;;;;5101062;27;19916;-60
2021/12/30 02:18:30;;;;;;;;;;;11.90;99.90;;;;;;5099805;28;19947;-60
2021/12/30 02:20:57;;;;;;;;;;;11.90;99.90;;;;;;5085570;28;19926;-61
2021/12/30 02:23:23;;;;;;;;;;;11.90;99.90;;;;;;5098320;27;19924;-59
2021/12/30 02:25:50;;;;;;;;;;;11.90;99.90;;;;;;5103040;27;20399;-60
2021/12/30 02:28:16;;;;;;;;;;;11.90;99.90;;;;;;5110396;27;19946;-60
2021/12/30 02:30:43;;;;;;;;;;;11.90;99.90;;;;;;5101764;27;19916;-60
2021/12/30 02:33:08;;;;;;;;;;;11.90;99.90;;;;;;5100004;27;19946;-62
2021/12/30 02:35:34;;;;;;;;;;;11.90;99.90;;;;;;5104948;27;20042;-60
2021/12/30 02:37:59;;;;;;;;;;;11.90;99.90;;;;;;5102755;27;19927;-60
2021/12/30 02:40:26;;;;;;;;;;;11.90;99.90;;;;;;5100943;27;20003;-61
2021/12/30 02:42:52;;;;;;;;;;;11.90;99.90;;;;;;5082774;28;20461;-61
2021/12/30 02:45:17;;;;;;;;;;;12.00;99.90;;;;;;5098665;27;19916;-61
2021/12/30 02:47:42;;;;;;;;;;;12.00;99.90;;;;;;5098162;27;19923;-60
2021/12/30 02:50:08;;;;;;;;;;;12.00;99.90;;;;;;5103257;27;19926;-61
2021/12/30 02:52:34;;;;;;;;;;;12.00;99.90;;;;;;5104241;27;20022;-59
2021/12/30 02:54:59;;;;;;;;;;;12.00;99.90;;;;;;5105823;27;20635;-61
2021/12/30 02:57:25;;;;;;;;;;;12.00;99.90;;;;;;5104974;27;19923;-60
2021/12/30 02:59:50;;;;;;;;;;;12.00;99.90;;;;;;5111263;27;19919;-59
2021/12/30 03:02:16;;;;;;;;;;;12.00;99.90;;;;;;5101524;27;19920;-61
2021/12/30 03:04:41;;;;;;;;;;;12.10;99.90;;;;;;5104849;27;19916;-61
2021/12/30 03:07:07;;;;;;;;;;;12.10;99.90;;;;;;5096605;27;19928;-60
2021/12/30 03:09:32;;;;;;;;;;;12.10;99.90;;;;;;5110002;27;19916;-60
2021/12/30 03:11:58;;;;;;;;;;;12.10;99.90;;;;;;5102374;28;19915;-60
2021/12/30 03:14:25;;;;;;;;;;;12.10;99.90;;;;;;5101177;27;20576;-59
2021/12/30 03:16:51;;;;;;;;;;;12.10;99.90;;;;;;5097457;27;20588;-60
2021/12/30 03:19:16;;;;;;;;;;;12.10;99.90;;;;;;5093287;27;19915;-60
2021/12/30 03:21:42;;;;;;;;;;;12.10;99.90;;;;;;5104121;27;19965;-60
2021/12/30 03:24:08;;;;;;;;;;;12.20;99.90;;;;;;5097545;27;20386;-59
2021/12/30 03:26:35;;;;;;;;;;;12.20;99.90;;;;;;5112703;27;19978;-60
2021/12/30 03:29:00;;;;;;;;;;;12.20;99.90;;;;;;5107572;27;20025;-60
2021/12/30 03:31:26;;;;;;;;;;;12.30;99.90;;;;;;5108014;27;19948;-60
2021/12/30 03:33:52;;;;;;;;;;;12.20;99.90;;;;;;5087888;27;19915;-60
2021/12/30 03:36:18;;;;;;;;;;;12.20;99.90;;;;;;5089500;27;20254;-59
2021/12/30 03:38:45;;;;;;;;;;;12.30;99.90;;;;;;5066580;28;19924;-60
2021/12/30 03:41:11;;;;;;;;;;;12.30;99.90;;;;;;5083866;28;19919;-60
2021/12/30 03:43:38;;;;;;;;;;;12.30;99.90;;;;;;5076316;28;19993;-59
2021/12/30 03:46:05;;;;;;;;;;;12.30;99.90;;;;;;5077451;28;19995;-59
2021/12/30 03:48:35;;;;;;;;;;;12.30;99.90;;;;;;5083407;28;20387;-59
2021/12/30 03:51:05;;;;;;;;;;;12.30;99.90;;;;;;5073486;28;20348;-60
2021/12/30 03:53:31;;;;;;;;;;;12.30;99.90;;;;;;5081904;27;19916;-60
2021/12/30 03:55:56;;;;;;;;;;;12.40;99.90;;;;;;5082986;28;20105;-60
2021/12/30 03:58:22;;;;;;;;;;;12.40;99.90;;;;;;5060544;28;19931;-59
2021/12/30 04:00:47;;;;;;;;;;;12.50;99.90;;;;;;5060668;28;19928;-60
2021/12/30 04:03:13;;;;;;;;;;;12.50;99.90;;;;;;5054684;28;19947;-59
2021/12/30 04:05:38;;;;;;;;;;;12.60;99.90;;;;;;5089747;28;19931;-59
2021/12/30 04:08:04;;;;;;;;;;;12.60;99.90;;;;;;5079194;28;19916;-59
2021/12/30 04:10:29;;;;;;;;;;;12.50;99.90;;;;;;5092606;27;19916;-60
2021/12/30 04:12:56;;;;;;;;;;;12.60;99.90;;;;;;5102500;28;19923;-60
2021/12/30 04:15:22;;;;;;;;;;;12.70;99.90;;;;;;5102579;28;20003;-59
2021/12/30 04:17:47;;;;;;;;;;;12.50;99.90;;;;;;5105167;27;19999;-60
2021/12/30 04:20:15;;;;;;;;;;;12.50;99.90;;;;;;5102523;27;19931;-60
2021/12/30 04:22:41;;;;;;;;;;;12.60;99.90;;;;;;5106675;27;20631;-60
2021/12/30 04:25:08;;;;;;;;;;;12.50;99.90;;;;;;5109724;27;20379;-60
2021/12/30 04:27:34;;;;;;;;;;;12.50;99.90;;;;;;5106743;27;19961;-60
2021/12/30 04:29:59;;;;;;;;;;;12.60;99.90;;;;;;5106404;27;19932;-60
2021/12/30 04:32:25;;;;;;;;;;;12.70;99.90;;;;;;5108482;27;20337;-59
2021/12/30 04:34:50;;;;;;;;;;;12.70;99.90;;;;;;5112784;27;19925;-59
2021/12/30 04:37:16;;;;;;;;;;;;;;;;;;5105508;27;19919;-60
2021/12/30 04:39:42;;;;;;;;;;;12.70;99.90;;;;;;5102798;28;19959;-60
2021/12/30 04:42:07;;;;;;;;;;;12.70;99.90;;;;;;5103721;27;19935;-59
2021/12/30 04:44:33;;;;;;;;;;;12.60;99.90;;;;;;5086704;27;19927;-60
2021/12/30 04:46:58;;;;;;;;;;;12.60;99.90;;;;;;5101231;27;19924;-59
2021/12/30 04:49:25;;;;;;;;;;;12.60;99.90;;;;;;5109807;27;20329;-59
2021/12/30 04:51:50;;;;;;;;;;;12.60;99.90;;;;;;5102978;27;20011;-59
2021/12/30 04:54:16;;;;;;;;;;;12.70;99.90;;;;;;5098143;27;20014;-59
2021/12/30 04:56:42;;;;;;;;;;;12.60;99.90;;;;;;5105975;27;19912;-59
2021/12/30 04:59:07;;;;;;;;;;;12.60;99.90;;;;;;5103497;27;20361;-59
2021/12/30 05:01:33;;;;;;;;;;;12.60;99.90;;;;;;5099118;27;19926;-59
2021/12/30 05:03:58;;;;;;;;;;;12.60;99.90;;;;;;5110713;27;19926;-59
2021/12/30 05:06:24;;;;;;;;;;;12.60;99.90;;;;;;5100314;27;19946;-60
2021/12/30 05:08:50;;;;;;;;;;;12.50;99.90;;;;;;5112242;27;20602;-59
2021/12/30 05:11:15;;;;;;;;;;;12.50;99.90;;;;;;5113018;27;19946;-59
2021/12/30 05:13:41;;;;;;;;;;;12.60;99.90;;;;;;5109918;27;20012;-59
2021/12/30 05:16:06;;;;;;;;;;;12.60;99.90;;;;;;5106146;27;19949;-59
2021/12/30 05:18:33;;;;;;;;;;;12.60;99.90;;;;;;5117309;27;19923;-59
2021/12/30 05:20:59;;;;;;;;;;;12.70;99.90;;;;;;5117760;27;20059;-59
2021/12/30 05:23:25;;;;;;;;;;;12.70;99.90;;;;;;5109846;27;20753;-59
2021/12/30 05:25:51;;;;;;;;;;;12.70;99.90;;;;;;5102872;27;19995;-59
2021/12/30 05:28:16;;;;;;;;;;;12.80;99.90;;;;;;5111743;27;19946;-59
2021/12/30 05:30:42;;;;;;;;;;;12.80;99.90;;;;;;5117426;27;19964;-59
2021/12/30 05:33:07;;;;;;;;;;;12.70;99.90;;;;;;5115274;27;19922;-59
2021/12/30 05:35:33;;;;;;;;;;;12.70;99.90;;;;;;5105726;27;20546;-59
2021/12/30 05:38:00;;;;;;;;;;;12.80;99.90;;;;;;5102359;27;19980;-60
2021/12/30 05:40:26;;;;;;;;;;;12.80;99.90;;;;;;5099227;27;20374;-58
2021/12/30 05:42:51;;;;;;;;;;;12.70;99.90;;;;;;5103078;27;19923;-59
2021/12/30 05:45:17;;;;;;;;;;;12.90;99.90;;;;;;5107553;27;19916;-60
2021/12/30 05:47:46;;;;;;;;;;;12.80;99.90;;;;;;5100636;27;19930;-59
2021/12/30 05:50:12;;;;;;;;;;;12.90;99.90;;;;;;5100365;27;19919;-60
2021/12/30 05:52:37;;;;;;;;;;;12.90;99.90;;;;;;5105059;27;20490;-58
2021/12/30 05:55:04;;;;;;;;;;;12.90;99.90;;;;;;5112090;27;20359;-60
2021/12/30 05:57:29;;;;;;;;;;;12.90;99.90;;;;;;5096375;27;19938;-59
2021/12/30 05:59:55;;;;;;;;;;;12.90;99.90;;;;;;5105322;27;19924;-60
2021/12/30 06:02:21;;;;;;;;;;;12.90;99.90;;;;;;5101566;27;19932;-59
2021/12/30 06:04:46;;;;;;;;;;;13.00;99.90;;;;;;5100746;27;19922;-60
2021/12/30 06:07:12;;;;;;;;;;;13.00;99.90;;;;;;5109016;27;20459;-59
2021/12/30 06:09:38;;;;;;;;;;;13.00;99.90;;;;;;5102129;27;19916;-59
2021/12/30 06:12:03;;;;;;;;;;;13.10;99.90;;;;;;5099032;27;20014;-59
2021/12/30 06:14:29;;;;;;;;;;;13.10;99.90;;;;;;5107245;27;20335;-59
2021/12/30 06:16:54;;;;;;;;;;;13.10;99.90;;;;;;5109673;27;20378;-60
2021/12/30 06:19:20;;;;;;;;;;;13.10;99.90;;;;;;5103594;27;19946;-59
2021/12/30 06:21:45;;;;;;;;;;;13.10;99.90;;;;;;5107283;27;19920;-60
2021/12/30 06:24:11;;;;;;;;;;;13.20;99.90;;;;;;5105597;27;19919;-60
2021/12/30 06:26:37;;;;;;;;;;;13.20;99.90;;;;;;5100646;27;20306;-60
2021/12/30 06:29:03;;;;;;;;;;;13.10;99.90;;;;;;5108753;27;21341;-60
2021/12/30 06:31:28;;;;;;;;;;;13.20;99.90;;;;;;5089055;28;20472;-59
2021/12/30 06:33:54;;;;;;;;;;;13.30;99.90;;;;;;5110644;27;19955;-59
2021/12/30 06:36:21;;;;;;;;;;;13.20;99.90;;;;;;5096686;27;19920;-61
2021/12/30 06:38:47;;;;;;;;;;;13.20;99.90;;;;;;5105515;27;20334;-60
2021/12/30 06:41:13;;;;;;;;;;;13.10;99.90;;;;;;5099049;28;20456;-60
2021/12/30 06:43:39;;;;;;;;;;;13.30;99.90;;;;;;5101338;27;19982;-59
2021/12/30 06:46:05;;;;;;;;;;;13.20;99.90;;;;;;5112479;27;20363;-60
2021/12/30 06:48:31;;;;;;;;;;;13.30;99.90;;;;;;5103578;27;20535;-59
2021/12/30 06:50:59;;;;;;;;;;;13.20;99.90;;;;;;5108063;27;19923;-60
2021/12/30 06:53:24;;;;;;;;;;;13.30;99.90;;;;;;5098596;27;20275;-59
2021/12/30 06:55:50;;;;;;;;;;;13.30;99.90;;;;;;5082136;28;19916;-60
2021/12/30 06:58:16;;;;;;;;;;;13.30;99.90;;;;;;5102352;28;19916;-59
2021/12/30 07:00:42;;;;;;;;;;;13.30;99.90;;;;;;5087193;27;20305;-60
2021/12/30 07:03:07;;;;;;;;;;;13.30;99.90;;;;;;5100695;27;20055;-60
2021/12/30 07:05:33;;;;;;;;;;;13.40;99.90;;;;;;5100281;27;19947;-60
2021/12/30 07:07:59;;;;;;;;;;;13.30;99.90;;;;;;5107438;27;19916;-60
2021/12/30 07:10:25;;;;;;;;;;;13.40;99.90;;;;;;5106228;27;19918;-60
2021/12/30 07:12:50;;;;;;;;;;;13.40;99.90;;;;;;5106516;27;20403;-60
2021/12/30 07:15:16;;;;;;;;;;;13.40;99.90;;;;;;5103152;27;19919;-59
2021/12/30 07:17:41;;;;;;;;;;;13.40;99.90;;;;;;5103545;27;20003;-60
2021/12/30 07:20:08;;;;;;;;;;;13.40;99.90;;;;;;5103359;27;20319;-59
2021/12/30 07:22:34;;;;;;;;;;;13.30;99.90;;;;;;5102090;27;19934;-59
2021/12/30 07:24:59;;;;;;;;;;;13.40;99.90;;;;;;5095475;27;19920;-60
2021/12/30 07:27:25;;;;;;;;;;;13.40;99.90;;;;;;5098622;27;19969;-61
2021/12/30 07:29:51;;;;;;;;;;;13.40;99.90;;;;;;5106281;27;19947;-60
2021/12/30 07:32:16;;;;;;;;;;;13.40;99.90;;;;;;5095768;27;19981;-61
2021/12/30 07:34:41;;;;;;;;;;;13.30;99.90;;;;;;5109618;27;19919;-61
2021/12/30 07:37:07;;;;;;;;;;;13.40;99.90;;;;;;5104494;27;19916;-60
2021/12/30 07:39:32;;;;;;;;;;;13.40;99.90;;;;;;5098858;28;20379;-59
2021/12/30 07:41:58;;;;;;;;;;;13.40;99.90;;;;;;5102671;27;19929;-61
2021/12/30 07:44:24;;;;;;;;;;;13.30;99.90;;;;;;5096415;28;19951;-60
2021/12/30 07:46:49;;;;;;;;;;;13.30;99.90;;;;;;5097120;28;20018;-64
2021/12/30 07:49:15;;;;;;;;;;;13.40;99.90;;;;;;5096194;27;19915;-60
2021/12/30 07:51:40;;;;;;;;;;;13.30;99.90;;;;;;5085492;28;20474;-60
2021/12/30 07:54:06;;;;;;;;;;;13.40;99.90;;;;;;5098286;28;19915;-60
2021/12/30 07:56:31;;;;;;;;;;;13.40;99.90;;;;;;5099239;27;20037;-59
2021/12/30 07:58:58;;;;;;;;;;;13.40;99.90;;;;;;5101457;28;19958;-60
2021/12/30 08:01:23;;;;;;;;;;;13.40;99.90;;;;;;5113522;27;20390;-61
2021/12/30 08:03:49;;;;;;;;;;;13.40;99.90;;;;;;5097884;28;19962;-60
2021/12/30 08:06:14;;;;;;;;;;;13.40;99.90;;;;;;5101277;27;20007;-60
2021/12/30 08:08:40;;;;;;;;;;;13.40;99.90;;;;;;5108282;27;19926;-60
2021/12/30 08:11:05;;;;;;;;;;;13.40;99.90;;;;;;5105678;27;20030;-60
2021/12/30 08:13:31;;;;;;;;;;;13.40;99.90;;;;;;5104250;28;19927;-61
2021/12/30 08:15:56;;;;;;;;;;;13.40;99.90;;;;;;5098043;28;19919;-62
2021/12/30 08:18:22;;;;;;;;;;;13.40;99.90;;;;;;5099166;28;19924;-61
2021/12/30 08:20:47;;;;;;;;;;;13.40;99.90;;;;;;5096805;28;20558;-61
2021/12/30 08:23:13;;;;;;;;;;;13.40;99.90;;;;;;5099025;28;19927;-61
2021/12/30 08:25:39;;;;;;;;;;;13.40;99.90;;;;;;5098996;28;19951;-61
2021/12/30 08:28:04;;;;;;;;;;;13.40;99.90;;;;;;5082303;28;20294;-61
2021/12/30 08:30:30;;;;;;;;;;;13.50;99.90;;;;;;5102825;28;19969;-61
2021/12/30 08:32:55;;;;;;;;;;;13.40;99.90;;;;;;5098653;28;20010;-61
2021/12/30 08:35:22;;;;;;;;;;;13.40;99.90;;;;;;5100696;27;19920;-61
2021/12/30 08:37:48;;;;;;;;;;;13.40;99.90;;;;;;5100011;27;20428;-61
2021/12/30 08:40:14;;;;;;;;;;;13.40;99.90;;;;;;5103383;28;19979;-61
2021/12/30 08:42:40;;;;;;;;;;;13.40;99.90;;;;;;5096248;28;19945;-60
2021/12/30 08:45:06;;;;;;;;;;;13.40;99.90;;;;;;5097667;28;20301;-61
2021/12/30 08:47:32;;;;;;;;;;;13.40;99.90;;;;;;5098709;28;20290;-61
2021/12/30 08:49:58;;;;;;;;;;;13.40;99.90;;;;;;5104211;27;19916;-61
2021/12/30 08:52:24;;;;;;;;;;;13.40;99.90;;;;;;5100066;28;20420;-61
2021/12/30 08:54:50;;;;;;;;;;;13.40;99.90;;;;;;5097523;28;19931;-62
2021/12/30 08:57:17;;;;;;;;;;;13.40;99.90;;;;;;5098837;28;19916;-61
2021/12/30 08:59:43;;;;;;;;;;;13.40;99.90;;;;;;5101771;28;19916;-61
2021/12/30 09:02:08;;;;;;;;;;;13.50;99.90;;;;;;5106012;28;20435;-61
2021/12/30 09:04:34;;;;;;;;;;;13.50;99.90;;;;;;5098868;28;20364;-60
2021/12/30 09:07:00;;;;;;;;;;;13.50;99.90;;;;;;5099915;28;20418;-61
2021/12/30 09:09:26;;;;;;;;;;;13.40;99.90;;;;;;5095381;27;19985;-60
2021/12/30 09:11:52;;;;;;;;;;;13.50;99.90;;;;;;5112510;27;20836;-61
2021/12/30 09:14:17;;;;;;;;;;;13.60;99.90;;;;;;5102601;27;20027;-60
2021/12/30 09:16:43;;;;;;;;;;;13.60;99.90;;;;;;5100457;28;19923;-62
2021/12/30 09:19:08;;;;;;;;;;;13.50;99.90;;;;;;5109710;27;19915;-61
2021/12/30 09:21:40;;;;;;;;;;;13.60;99.90;;;;;;5104695;27;20022;-61
2021/12/30 09:24:06;;;;;;;;;;;13.60;99.90;;;;;;5101353;27;20535;-61
2021/12/30 09:26:32;;;;;;;;;;;13.60;99.90;;;;;;5094679;27;19923;-61
2021/12/30 09:28:57;;;;;;;;;;;13.60;99.90;;;;;;5110621;27;20400;-61
2021/12/30 09:31:23;;;;;;;;;;;13.60;99.90;;;;;;5101069;27;19924;-61
2021/12/30 09:33:49;;;;;;;;;;;13.60;99.90;;;;;;5101928;27;19915;-61
2021/12/30 09:36:14;;;;;;;;;;;13.60;99.90;;;;;;5098097;28;19920;-61
2021/12/30 09:38:40;;;;;;;;;;;13.80;99.90;;;;;;5103500;27;19927;-61
2021/12/30 09:41:05;;;;;;;;;;;13.70;99.90;;;;;;5083550;28;20379;-61
2021/12/30 09:43:31;;;;;;;;;;;13.70;99.90;;;;;;5104888;27;19920;-60
2021/12/30 09:45:56;;;;;;;;;;;13.80;99.90;;;;;;5104141;27;20394;-61
2021/12/30 09:48:22;;;;;;;;;;;13.80;99.90;;;;;;5097277;28;19931;-62
2021/12/30 09:50:52;;;;;;;;;;;14.00;99.90;;;;;;5098963;28;20538;-61
2021/12/30 09:53:19;;;;;;;;;;;13.90;99.90;;;;;;5100391;27;19919;-61
2021/12/30 09:55:45;;;;;;;;;;;14.10;99.90;;;;;;5097603;28;19920;-61
2021/12/30 09:58:10;;;;;;;;;;;13.80;99.90;;;;;;5110565;27;20377;-61
2021/12/30 10:00:36;;;;;;;;;;;14.00;99.90;;;;;;5100682;27;19916;-61
2021/12/30 10:03:01;;;;;;;;;;;13.90;99.90;;;;;;5098649;28;20400;-61
2021/12/30 10:05:29;;;;;;;;;;;14.00;99.90;;;;;;5099597;28;19915;-61
2021/12/30 10:08:07;;;;;;;;;;;14.00;99.90;;;;;;5108433;27;20006;-60
2021/12/30 10:10:35;;;;;;;;;;;14.00;99.90;;;;;;5097675;27;19916;-61
2021/12/30 10:13:13;;;;;;;;;;;14.10;99.90;;;;;;5100393;27;20494;-61
2021/12/30 10:15:43;;;;;;;;;;;14.10;99.90;;;;;;5099708;28;20348;-62
2021/12/30 10:18:08;;;;;;;;;;;14.10;99.90;;;;;;5098431;28;20355;-61
2021/12/30 10:20:37;;;;;;;;;;;14.10;99.90;;;;;;5100057;28;19919;-60
2021/12/30 10:23:21;;;;;;;;;;;14.10;99.90;;;;;;5095989;28;19924;-62
2021/12/30 10:25:48;;;;;;;;;;;14.10;99.90;;;;;;5100963;27;20431;-62
2021/12/30 10:28:25;;;;;;;;;;;14.20;99.90;;;;;;5107621;27;20343;-61
2021/12/30 10:30:52;;;;;;;;;;;14.20;99.90;;;;;;5097553;27;19931;-61
2021/12/30 10:33:23;;;;;;;;;;;14.20;99.90;;;;;;5095746;27;19916;-62
2021/12/30 10:35:49;;;;;;;;;;;14.20;99.90;;;;;;5083384;28;19967;-61
2021/12/30 10:38:14;;;;;;;;;;;14.20;99.90;;;;;;5098691;27;19959;-62
2021/12/30 10:40:48;;;;;;;;;;;14.20;99.90;;;;;;5101210;27;19930;-62
2021/12/30 10:43:30;;;;;;;;;;;14.20;99.90;;;;;;5099133;28;19981;-62
2021/12/30 10:46:10;;;;;;;;;;;14.30;99.90;;;;;;5090149;28;20290;-61
2021/12/30 10:48:50;;;;;;;;;;;14.20;99.90;;;;;;5102331;27;20458;-61
2021/12/30 10:51:17;;;;;;;;;;;14.20;99.90;;;;;;5095169;27;19923;-61
2021/12/30 10:53:43;;;;;;;;;;;14.20;99.90;;;;;;5099929;28;19923;-61
2021/12/30 10:56:28;;;;;;;;;;;14.20;99.90;;;;;;5098533;28;19919;-61
2021/12/30 10:59:06;;;;;;;;;;;14.20;99.90;;;;;;5093300;27;19923;-62
2021/12/30 11:01:36;;;;;;;;;;;14.20;99.90;;;;;;5098589;27;19976;-61
2021/12/30 11:04:02;;;;;;;;;;;14.20;99.90;;;;;;5103243;27;20432;-61
2021/12/30 11:06:28;;;;;;;;;;;14.20;99.90;;;;;;5102802;27;19920;-62
2021/12/30 11:09:23;;;;;;;;;;;14.20;99.90;;;;;;5102509;27;20502;-61
2021/12/30 11:11:52;;;;;;;;;;;14.20;99.90;;;;;;5085833;27;20063;-62
2021/12/30 11:14:20;;;;;;;;;;;14.20;99.90;;;;;;5101807;27;20458;-61
2021/12/30 11:16:57;;;;;;;;;;;14.20;99.90;;;;;;5077982;28;20027;-63
2021/12/30 11:19:23;;;;;;;;;;;14.20;99.90;;;;;;5098478;27;19927;-62
2021/12/30 11:21:51;;;;;;;;;;;14.20;99.90;;;;;;5098001;27;19976;-61
2021/12/30 11:24:17;;;;;;;;;;;14.20;99.90;;;;;;5098089;27;20364;-61
2021/12/30 11:26:43;;;;;;;;;;;14.20;99.90;;;;;;5100185;28;19926;-61
2021/12/30 11:29:08;;;;;;;;;;;14.20;99.90;;;;;;5106602;27;19942;-63
2021/12/30 11:31:34;;;;;;;;;;;14.20;99.90;;;;;;5100718;27;19916;-61
2021/12/30 11:34:00;;;;;;;;;;;14.20;99.90;;;;;;5099828;27;20497;-62
2021/12/30 11:36:28;;;;;;;;;;;14.30;99.90;;;;;;5099209;28;19969;-61
2021/12/30 11:38:55;;;;;;;;;;;14.30;99.90;;;;;;5097512;28;20416;-62
2021/12/30 11:41:23;;;;;;;;;;;14.30;99.90;;;;;;5098786;27;19923;-62
2021/12/30 11:43:49;;;;;;;;;;;14.30;99.90;;;;;;5100315;28;19982;-62
2021/12/30 11:46:33;;;;;;;;;;;14.30;99.90;;;;;;5090918;28;20441;-62
2021/12/30 11:48:59;;;;;;;;;;;14.30;99.90;;;;;;5099380;27;19962;-62
2021/12/30 11:51:39;;;;;;;;;;;14.30;99.90;;;;;;5100153;28;19996;-62
2021/12/30 11:54:23;;;;;;;;;;;14.30;99.90;;;;;;5100668;27;19965;-61
2021/12/30 11:57:08;;;;;;;;;;;14.30;99.90;;;;;;5098954;28;20388;-62
2021/12/30 11:59:39;;;;;;;;;;;14.30;99.90;;;;;;5091641;27;20014;-61
2021/12/30 12:02:24;;;;;;;;;;;14.30;99.90;;;;;;5080105;28;19923;-62
2021/12/30 12:04:50;;;;;;;;;;;14.30;99.90;;;;;;5100623;28;19920;-62
2021/12/30 12:07:15;;;;;;;;;;;14.30;99.90;;;;;;5103801;27;19919;-62
2021/12/30 12:09:42;;;;;;;;;;;14.30;99.90;;;;;;5101287;28;20564;-62
2021/12/30 12:12:09;;;;;;;;;;;14.30;99.90;;;;;;5097026;27;19916;-62
2021/12/30 12:14:39;;;;;;;;;;;14.30;99.90;;;;;;5108454;27;20685;-62
2021/12/30 12:17:06;;;;;;;;;;;14.30;99.90;;;;;;5099234;28;20319;-62
2021/12/30 12:19:49;;;;;;;;;;;14.40;99.90;;;;;;5102486;28;20477;-62
2021/12/30 12:22:17;;;;;;;;;;;14.40;99.90;;;;;;5100042;28;19923;-62
2021/12/30 12:24:43;;;;;;;;;;;14.40;99.90;;;;;;5095808;28;20453;-61
2021/12/30 12:27:10;;;;;;;;;;;14.40;99.90;;;;;;5098000;27;19947;-62
2021/12/30 12:29:41;;;;;;;;;;;14.40;99.90;;;;;;5103970;27;20337;-62
2021/12/30 12:32:10;;;;;;;;;;;14.50;99.90;;;;;;5096920;28;19916;-63
2021/12/30 12:34:53;;;;;;;;;;;14.50;99.90;;;;;;5099733;28;19938;-62
2021/12/30 12:37:27;;;;;;;;;;;14.60;99.90;;;;;;5100138;28;19980;-62
2021/12/30 12:40:00;;;;;;;;;;;14.50;99.90;;;;;;5080098;28;19926;-62
2021/12/30 12:42:45;;;;;;;;;;;14.50;99.90;;;;;;5095801;27;19953;-61
2021/12/30 12:45:44;;;;;;;;;;;14.50;99.90;;;;;;5102698;27;19920;-62
2021/12/30 12:48:22;;;;;;;;;;;14.50;99.90;;;;;;5065944;27;19998;-62
2021/12/30 12:50:47;;;;;;;;;;;14.50;99.90;;;;;;5101758;28;20425;-62
2021/12/30 12:53:20;;;;;;;;;;;14.50;99.90;;;;;;5104745;27;19916;-63
2021/12/30 12:55:45;;;;;;;;;;;14.50;99.90;;;;;;5097805;28;20584;-62
2021/12/30 12:58:10;;;;;;;;;;;14.50;99.90;;;;;;5104739;27;19938;-62
2021/12/30 13:00:36;;;;;;;;;;;14.40;99.90;;;;;;5109033;27;19971;-62
2021/12/30 13:03:02;;;;;;;;;;;14.50;99.90;;;;;;5102060;28;20473;-62
2021/12/30 13:05:27;;;;;;;;;;;14.50;99.90;;;;;;5100930;28;19924;-62
2021/12/30 13:07:54;;;;;;;;;;;14.50;99.90;;;;;;5110180;27;19915;-62
2021/12/30 13:10:21;;;;;;;;;;;14.50;99.90;;;;;;5098593;28;19926;-62
2021/12/30 13:12:47;;;;;;;;;;;14.50;99.90;;;;;;5107836;27;20310;-61
2021/12/30 13:15:14;;;;;;;;;;;14.60;99.90;;;;;;5080291;28;20339;-62
2021/12/30 13:17:43;;;;;;;;;;;14.60;99.90;;;;;;5098843;28;20002;-63
2021/12/30 13:20:13;;;;;;;;;;;14.60;99.90;;;;;;5098104;27;19935;-62
2021/12/30 13:22:39;;;;;;;;;;;14.60;99.90;;;;;;5098322;27;20340;-62
2021/12/30 13:25:05;;;;;;;;;;;14.70;99.90;;;;;;5074588;28;19926;-62
2021/12/30 13:27:33;;;;;;;;;;;14.70;99.90;;;;;;5094394;27;20441;-62
2021/12/30 13:30:03;;;;;;;;;;;14.70;99.90;;;;;;5104454;27;19939;-62
2021/12/30 13:32:30;;;;;;;;;;;14.60;99.90;;;;;;5104789;27;20276;-62
2021/12/30 13:34:58;;;;;;;;;;;14.60;99.90;;;;;;5103588;27;19955;-62
2021/12/30 13:37:28;;;;;;;;;;;14.60;99.90;;;;;;5103247;27;19919;-62
2021/12/30 13:39:55;;;;;;;;;;;14.60;99.90;;;;;;5100070;27;20006;-62
2021/12/30 13:42:21;;;;;;;;;;;14.60;99.90;;;;;;5102618;27;20489;-62
2021/12/30 13:44:49;;;;;;;;;;;14.60;99.90;;;;;;5112881;27;20011;-61
2021/12/30 13:47:19;;;;;;;;;;;14.50;99.90;;;;;;5098817;27;19959;-62
2021/12/30 13:49:46;;;;;;;;;;;14.50;99.90;;;;;;5100335;27;19920;-61
2021/12/30 13:52:11;;;;;;;;;;;14.50;99.90;;;;;;5097748;28;20371;-62
2021/12/30 13:54:37;;;;;;;;;;;14.60;99.90;;;;;;5101127;27;19933;-61
2021/12/30 13:57:02;;;;;;;;;;;14.50;99.90;;;;;;5103047;27;19990;-61
2021/12/30 13:59:31;;;;;;;;;;;14.50;99.90;;;;;;5108345;27;19924;-62
2021/12/30 14:01:59;;;;;;;;;;;14.50;99.90;;;;;;5101055;27;20381;-62
2021/12/30 14:04:37;;;;;;;;;;;14.50;99.90;;;;;;5099683;27;19916;-61
2021/12/30 14:07:02;;;;;;;;;;;14.50;99.90;;;;;;5102620;28;19949;-62
2021/12/30 14:09:28;;;;;;;;;;;14.50;99.90;;;;;;5101273;28;20374;-62
2021/12/30 14:11:53;;;;;;;;;;;14.50;99.90;;;;;;5081288;28;19935;-62
2021/12/30 14:14:26;;;;;;;;;;;14.50;99.90;;;;;;5097632;27;20209;-62
2021/12/30 14:16:59;;;;;;;;;;;14.50;99.90;;;;;;5098920;27;19998;-62
2021/12/30 14:19:29;;;;;;;;;;;14.50;99.90;;;;;;5101777;28;20001;-62